Time;durP1;ratioP1;P1;durP2;ratioP2;P2;SDS_P1;SDS_P2;PMS_P1;PMS_P2;Temp;Humidity;BMP_temperature;BMP_pressure;BME280_temperature;BME280_humidity;BME280_pressure;Samples;Min_cycle;Max_cycle;Signal;HPM_P1;HPM_P2
2022/05/17 00:00:34;;;;;;;5.93;4.38;;;11.10;99.90;;;;;;5229210;28;20518;-67
2022/05/17 00:03:04;;;;;;;9.27;4.70;;;10.70;99.90;;;;;;5228842;28;20059;-67
2022/05/17 00:05:35;;;;;;;5.65;3.90;;;10.80;99.90;;;;;;5228969;28;20021;-68
2022/05/17 00:08:06;;;;;;;5.20;4.05;;;11.20;99.90;;;;;;5228781;28;20086;-68
2022/05/17 00:10:38;;;;;;;7.43;3.67;;;11.20;99.90;;;;;;5228847;28;20033;-68
2022/05/17 00:13:10;;;;;;;5.03;3.85;;;11.30;99.90;;;;;;5228433;28;20037;-67
2022/05/17 00:15:44;;;;;;;8.55;4.10;;;11.30;99.90;;;;;;5228735;28;20027;-67
2022/05/17 00:18:16;;;;;;;5.30;3.70;;;11.20;99.90;;;;;;5228736;28;20028;-68
2022/05/17 00:20:48;;;;;;;5.75;3.53;;;11.10;99.90;;;;;;5228490;28;20029;-68
2022/05/17 00:23:19;;;;;;;6.40;4.15;;;10.90;99.90;;;;;;5228659;28;20032;-68
2022/05/17 00:25:50;;;;;;;4.25;3.63;;;10.40;99.90;;;;;;5228450;28;20028;-69
2022/05/17 00:28:21;;;;;;;12.75;5.30;;;10.70;99.90;;;;;;5228608;28;20448;-67
2022/05/17 00:30:52;;;;;;;6.03;4.78;;;10.50;99.90;;;;;;5228337;28;20367;-67
2022/05/17 00:33:23;;;;;;;6.82;5.07;;;10.60;99.90;;;;;;5228194;28;20040;-68
2022/05/17 00:35:54;;;;;;;6.18;4.78;;;10.80;99.90;;;;;;5228459;28;20031;-68
2022/05/17 00:38:25;;;;;;;7.95;5.15;;;10.60;99.90;;;;;;5228398;28;20033;-68
2022/05/17 00:40:56;;;;;;;5.82;4.50;;;10.50;99.90;;;;;;5228188;28;20074;-68
2022/05/17 00:43:29;;;;;;;5.70;4.90;;;10.50;99.90;;;;;;5227840;28;20045;-68
2022/05/17 00:46:02;;;;;;;5.63;4.70;;;10.70;99.90;;;;;;5228221;28;20108;-68
2022/05/17 00:48:32;;;;;;;8.43;5.28;;;11.00;99.90;;;;;;5228354;28;20373;-67
2022/05/17 00:51:03;;;;;;;9.70;5.32;;;10.60;99.90;;;;;;5228086;28;20021;-72
2022/05/17 00:53:35;;;;;;;9.02;5.90;;;10.20;99.90;;;;;;5227995;28;20040;-68
2022/05/17 00:56:16;;;;;;;10.43;5.57;;;10.40;99.90;;;;;;5228047;28;20111;-68
2022/05/17 00:58:53;;;;;;;7.10;4.85;;;10.60;99.90;;;;;;5227992;28;20108;-67
2022/05/17 01:01:28;;;;;;;8.07;5.10;;;10.60;99.90;;;;;;5227953;28;20421;-67
2022/05/17 01:04:20;;;;;;;7.97;5.68;;;10.50;99.90;;;;;;5227486;28;20025;-67
2022/05/17 01:07:19;;;;;;;6.82;4.75;;;10.60;99.90;;;;;;5227923;28;20028;-68
2022/05/17 01:09:50;;;;;;;8.48;5.90;;;10.40;99.90;;;;;;5227750;28;20108;-67
2022/05/17 01:12:21;;;;;;;10.90;6.35;;;10.60;99.90;;;;;;5227584;28;20069;-71
2022/05/17 01:14:57;;;;;;;10.13;6.15;;;10.20;99.90;;;;;;5227570;28;20444;-67
2022/05/17 01:17:32;;;;;;;7.63;5.57;;;10.30;99.90;;;;;;5227844;28;20025;-68
2022/05/17 01:20:08;;;;;;;8.77;5.68;;;10.20;99.90;;;;;;5227701;28;20043;-69
2022/05/17 01:22:39;;;;;;;8.30;5.78;;;10.20;99.90;;;;;;5227460;28;20021;-68
2022/05/17 01:25:09;;;;;;;8.75;5.50;;;10.50;99.90;;;;;;5227471;28;20078;-68
2022/05/17 01:27:45;;;;;;;6.55;5.72;;;10.60;99.90;;;;;;5227509;28;20037;-67
2022/05/17 01:30:20;;;;;;;7.15;5.53;;;10.40;99.90;;;;;;5227411;28;20361;-68
2022/05/17 01:32:51;;;;;;;9.43;5.75;;;10.00;99.90;;;;;;5227036;28;20083;-69
2022/05/17 01:35:22;;;;;;;11.15;6.63;;;9.90;99.90;;;;;;5227369;28;20025;-72
2022/05/17 01:37:56;;;;;;;11.63;4.95;;;9.90;99.90;;;;;;5227381;28;20052;-67
2022/05/17 01:40:27;;;;;;;9.38;5.90;;;10.00;99.90;;;;;;5227388;28;20036;-68
2022/05/17 01:42:58;;;;;;;7.85;4.82;;;10.30;99.90;;;;;;5227139;28;20118;-68
2022/05/17 01:45:29;;;;;;;10.40;5.97;;;10.30;99.90;;;;;;5227269;28;20420;-68
2022/05/17 01:48:00;;;;;;;9.95;5.55;;;9.80;99.90;;;;;;5227404;28;20031;-67
2022/05/17 01:50:31;;;;;;;10.05;5.90;;;10.00;99.90;;;;;;5227061;28;20017;-68
2022/05/17 01:53:02;;;;;;;11.55;5.90;;;10.20;99.90;;;;;;5209306;28;20091;-68
2022/05/17 01:55:33;;;;;;;8.45;5.80;;;9.80;99.90;;;;;;5209368;28;20069;-68
2022/05/17 01:58:04;;;;;;;8.77;6.25;;;9.70;99.90;;;;;;5227364;28;20452;-67
2022/05/17 02:00:35;;;;;;;8.10;5.43;;;10.00;99.90;;;;;;5227294;28;20021;-72
2022/05/17 02:03:06;;;;;;;8.73;6.10;;;10.10;99.90;;;;;;5227279;28;20428;-67
2022/05/17 02:05:37;;;;;;;8.02;5.65;;;9.90;99.90;;;;;;5209334;28;20033;-67
2022/05/17 02:08:08;;;;;;;11.13;7.00;;;9.90;99.90;;;;;;5227172;28;20028;-72
2022/05/17 02:10:38;;;;;;;11.60;7.13;;;9.60;99.90;;;;;;5227133;28;20483;-67
2022/05/17 02:13:10;;;;;;;9.82;6.80;;;10.10;99.90;;;;;;5227024;28;20364;-72
2022/05/17 02:15:40;;;;;;;11.25;6.55;;;9.60;99.90;;;;;;5229794;28;20033;-72
2022/05/17 02:18:11;;;;;;;12.13;6.32;;;9.50;99.90;;;;;;5231201;28;20025;-67
2022/05/17 02:20:42;;;;;;;9.02;6.30;;;9.80;99.90;;;;;;5231082;28;20028;-68
2022/05/17 02:23:13;;;;;;;8.73;6.55;;;9.70;99.90;;;;;;5231139;28;20452;-67
2022/05/17 02:25:44;;;;;;;9.05;6.38;;;10.10;99.90;;;;;;5230963;28;20021;-68
2022/05/17 02:28:15;;;;;;;7.95;6.50;;;9.90;99.90;;;;;;5231011;28;20033;-68
2022/05/17 02:30:46;;;;;;;8.27;6.30;;;9.50;99.90;;;;;;5230841;28;20020;-67
2022/05/17 02:33:17;;;;;;;8.68;7.25;;;9.50;99.90;;;;;;5230581;28;20037;-68
2022/05/17 02:35:48;;;;;;;17.02;6.65;;;9.70;99.90;;;;;;5230675;28;20025;-71
2022/05/17 02:38:19;;;;;;;8.98;6.38;;;9.90;99.90;;;;;;5230560;28;20067;-68
2022/05/17 02:40:49;;;;;;;10.18;6.40;;;9.50;99.90;;;;;;5230516;28;20021;-67
2022/05/17 02:43:20;;;;;;;9.07;6.85;;;9.60;99.90;;;;;;5230210;28;20124;-67
2022/05/17 02:45:53;;;;;;;7.80;6.30;;;9.60;99.90;;;;;;5230569;28;20026;-67
2022/05/17 02:48:24;;;;;;;8.88;6.00;;;9.50;99.90;;;;;;5230601;28;20096;-67
2022/05/17 02:50:55;;;;;;;10.30;6.28;;;9.60;99.90;;;;;;5230462;28;20107;-69
2022/05/17 02:53:25;;;;;;;10.00;6.10;;;9.70;99.90;;;;;;5230249;28;20556;-68
2022/05/17 02:55:56;;;;;;;9.70;5.95;;;9.60;99.90;;;;;;5230468;28;20100;-67
2022/05/17 02:58:27;;;;;;;8.43;6.05;;;9.90;99.90;;;;;;5230495;28;20104;-67
2022/05/17 03:00:58;;;;;;;10.07;5.78;;;9.60;99.90;;;;;;5230198;28;20021;-68
2022/05/17 03:03:29;;;;;;;8.30;6.70;;;9.50;99.90;;;;;;5230247;28;20086;-67
2022/05/17 03:06:00;;;;;;;12.17;6.13;;;9.60;99.90;;;;;;5230289;28;20076;-68
2022/05/17 03:08:31;;;;;;;8.35;6.45;;;9.50;99.90;;;;;;5230146;28;20524;-68
2022/05/17 03:11:02;;;;;;;9.60;5.95;;;9.70;99.90;;;;;;5229891;28;20048;-68
2022/05/17 03:13:35;;;;;;;10.27;6.82;;;9.90;99.90;;;;;;5211847;28;20035;-67
2022/05/17 03:16:06;;;;;;;8.98;6.20;;;9.70;99.90;;;;;;5229999;28;20112;-67
2022/05/17 03:18:39;;;;;;;7.85;6.53;;;9.50;99.90;;;;;;5230044;28;20107;-67
2022/05/17 03:21:09;;;;;;;8.75;6.47;;;9.70;99.90;;;;;;5229839;28;20033;-68
2022/05/17 03:23:40;;;;;;;9.30;6.25;;;9.90;99.90;;;;;;5229794;28;20078;-68
2022/05/17 03:26:11;;;;;;;7.35;5.57;;;9.90;99.90;;;;;;5229404;28;20029;-68
2022/05/17 03:28:42;;;;;;;8.93;6.13;;;10.10;99.90;;;;;;5229719;28;20021;-68
2022/05/17 03:31:13;;;;;;;10.95;6.85;;;9.90;99.90;;;;;;5229636;28;20017;-67
2022/05/17 03:33:44;;;;;;;11.43;6.50;;;10.00;99.90;;;;;;5229438;28;20033;-73
2022/05/17 03:36:15;;;;;;;8.18;6.63;;;9.80;99.90;;;;;;5229455;28;20056;-67
2022/05/17 03:38:46;;;;;;;10.65;7.28;;;10.20;99.90;;;;;;5229473;28;20036;-68
2022/05/17 03:41:17;;;;;;;9.82;7.45;;;10.20;99.90;;;;;;5229020;28;20037;-68
2022/05/17 03:43:48;;;;;;;12.57;7.97;;;10.40;99.90;;;;;;5229168;28;20049;-67
2022/05/17 03:46:18;;;;;;;10.40;7.38;;;10.70;99.90;;;;;;5229301;28;20021;-68
2022/05/17 03:48:49;;;;;;;11.77;8.02;;;10.70;99.90;;;;;;5229308;28;20048;-68
2022/05/17 03:51:21;;;;;;;10.73;8.00;;;10.60;99.90;;;;;;5229370;28;20377;-72
2022/05/17 03:53:51;;;;;;;12.73;8.85;;;10.80;99.90;;;;;;5229122;28;20033;-69
2022/05/17 03:56:22;;;;;;;11.68;8.63;;;10.80;99.90;;;;;;5229232;28;20017;-72
2022/05/17 03:58:53;;;;;;;17.08;10.55;;;11.10;99.90;;;;;;5229279;28;20122;-67
2022/05/17 04:01:24;;;;;;;17.88;9.52;;;11.20;99.90;;;;;;5229043;28;20100;-68
2022/05/17 04:03:55;;;;;;;13.52;9.95;;;11.00;99.90;;;;;;5229052;28;20048;-68
2022/05/17 04:06:26;;;;;;;14.13;9.10;;;11.20;99.90;;;;;;5228937;28;20032;-68
2022/05/17 04:08:57;;;;;;;14.23;8.82;;;11.30;99.90;;;;;;5229039;28;20051;-68
2022/05/17 04:11:27;;;;;;;13.55;8.63;;;11.50;99.90;;;;;;5228738;28;20112;-72
2022/05/17 04:13:59;;;;;;;10.48;8.00;;;11.60;99.90;;;;;;5228835;28;20048;-67
2022/05/17 04:16:35;;;;;;;14.38;8.55;;;11.80;99.90;;;;;;5228846;28;20017;-72
2022/05/17 04:19:06;;;;;;;12.80;8.82;;;11.60;99.90;;;;;;5211031;28;20040;-68
2022/05/17 04:21:37;;;;;;;14.32;8.15;;;11.90;99.90;;;;;;5228706;28;20029;-72
2022/05/17 04:24:08;;;;;;;11.20;7.90;;;12.10;99.90;;;;;;5228633;28;20837;-68
2022/05/17 04:26:39;;;;;;;11.77;7.80;;;12.40;99.90;;;;;;5228501;28;20538;-68
2022/05/17 04:29:10;;;;;;;12.60;7.45;;;12.20;99.90;;;;;;5228569;28;20029;-68
2022/05/17 04:31:41;;;;;;;12.70;8.30;;;12.30;99.90;;;;;;5228338;28;20087;-68
2022/05/17 04:34:12;;;;;;;10.77;8.35;;;12.50;99.90;;;;;;5228489;28;20437;-68
2022/05/17 04:36:43;;;;;;;14.98;7.95;;;12.80;99.90;;;;;;5227757;28;20028;-72
2022/05/17 04:39:14;;;;;;;11.65;8.52;;;12.60;99.90;;;;;;5228194;28;20021;-67
2022/05/17 04:41:45;;;;;;;11.88;8.32;;;13.10;99.90;;;;;;5235014;28;20480;-68
2022/05/17 04:44:16;;;;;;;12.75;8.95;;;13.00;99.90;;;;;;5242185;28;20086;-72
2022/05/17 04:46:46;;;;;;;11.48;8.07;;;13.40;99.90;;;;;;5229160;28;20025;-73
2022/05/17 04:49:17;;;;;;;13.95;8.75;;;13.20;99.90;;;;;;5228118;28;20465;-72
2022/05/17 04:51:53;;;;;;;11.73;7.93;;;13.50;99.90;;;;;;5239666;28;20071;-68
2022/05/17 04:54:24;;;;;;;14.55;8.27;;;13.70;99.90;;;;;;5227939;28;20424;-68
2022/05/17 04:56:55;;;;;;;12.10;8.30;;;14.00;99.90;;;;;;5240763;28;20029;-71
2022/05/17 04:59:25;;;;;;;12.80;7.22;;;14.20;99.90;;;;;;5248042;28;20448;-71
2022/05/17 05:01:56;;;;;;;10.10;6.53;;;13.90;99.90;;;;;;5229191;28;20033;-72
2022/05/17 05:04:27;;;;;;;13.27;7.38;;;14.10;99.90;;;;;;5226950;28;20036;-69
2022/05/17 05:06:58;;;;;;;9.90;6.05;;;14.60;99.90;;;;;;5227668;28;20029;-70
2022/05/17 05:09:29;;;;;;;11.15;7.05;;;14.90;99.90;;;;;;5246047;28;20039;-71
2022/05/17 05:12:00;;;;;;;11.30;6.95;;;14.80;99.90;;;;;;5248317;28;20029;-68
2022/05/17 05:14:30;;;;;;;12.30;7.65;;;15.10;99.90;;;;;;5245773;28;20033;-67
2022/05/17 05:17:01;;;;;;;12.23;6.90;;;15.50;99.90;;;;;;5227709;28;20025;-71
2022/05/17 05:19:33;;;;;;;10.20;6.93;;;15.60;99.90;;;;;;5227859;28;20029;-70
2022/05/17 05:22:04;;;;;;;7.90;6.30;;;15.80;99.90;;;;;;5227673;28;20032;-68
2022/05/17 05:24:35;;;;;;;11.05;6.25;;;16.00;99.90;;;;;;5227486;28;20024;-68
2022/05/17 05:27:06;;;;;;;8.38;6.30;;;16.20;99.90;;;;;;5227677;28;20029;-68
2022/05/17 05:29:37;;;;;;;12.18;6.70;;;16.50;99.90;;;;;;5227577;28;20475;-72
2022/05/17 05:32:08;;;;;;;8.68;6.20;;;16.80;99.90;;;;;;5227444;28;20159;-67
2022/05/17 05:34:39;;;;;;;9.20;6.22;;;17.00;99.90;;;;;;5227324;28;20112;-68
2022/05/17 05:37:09;;;;;;;6.63;5.18;;;17.00;99.90;;;;;;5227612;28;20528;-68
2022/05/17 05:39:40;;;;;;;9.15;5.32;;;17.30;99.90;;;;;;5227324;28;20158;-71
2022/05/17 05:42:11;;;;;;;8.68;5.60;;;17.00;99.90;;;;;;5226946;28;20056;-68
2022/05/17 05:44:42;;;;;;;7.57;5.50;;;16.90;99.90;;;;;;5227417;28;20528;-72
2022/05/17 05:47:12;;;;;;;9.45;5.47;;;17.60;99.90;;;;;;5227311;28;20345;-72
2022/05/17 05:49:44;;;;;;;9.68;4.72;;;18.00;99.90;;;;;;5230556;28;20024;-72
2022/05/17 05:52:14;;;;;;;7.00;4.97;;;18.50;99.90;;;;;;5231454;28;20533;-72
2022/05/17 05:54:45;;;;;;;7.65;5.35;;;18.60;99.90;;;;;;5231472;28;20036;-72
2022/05/17 05:57:16;;;;;;;7.75;4.93;;;18.60;99.90;;;;;;5231615;28;20028;-68
2022/05/17 05:59:47;;;;;;;9.00;4.57;;;19.20;99.90;;;;;;5231365;28;20338;-69
2022/05/17 06:02:19;;;;;;;10.05;4.97;;;19.20;99.90;;;;;;5231280;28;20103;-68
2022/05/17 06:04:49;;;;;;;7.18;4.80;;;19.30;99.90;;;;;;5231253;28;20029;-68
2022/05/17 06:07:20;;;;;;;7.15;4.65;;;19.60;99.90;;;;;;5231306;28;20115;-68
2022/05/17 06:09:51;;;;;;;11.27;5.45;;;19.80;99.90;;;;;;5231180;28;20416;-68
2022/05/17 06:12:22;;;;;;;9.55;5.88;;;19.90;99.90;;;;;;5231126;28;20068;-68
2022/05/17 06:14:53;;;;;;;12.20;7.32;;;20.10;99.90;;;;;;5230865;28;20071;-71
2022/05/17 06:17:27;;;;;;;11.93;6.75;;;20.20;99.90;;;;;;5231284;28;20013;-72
2022/05/17 06:19:58;;;;;;;18.92;7.47;;;20.30;99.90;;;;;;5228682;28;20032;-69
2022/05/17 06:22:29;;;;;;;13.60;6.93;;;20.60;99.90;;;;;;5230625;28;20021;-69
2022/05/17 06:25:01;;;;;;;13.38;7.65;;;20.90;99.90;;;;;;5229339;28;20033;-69
2022/05/17 06:27:31;;;;;;;11.80;7.05;;;21.20;99.90;;;;;;5230429;28;20021;-68
2022/05/17 06:30:03;;;;;;;10.95;6.32;;;21.30;99.90;;;;;;5230698;28;20044;-69
2022/05/17 06:32:34;;;;;;;14.00;8.20;;;21.00;99.90;;;;;;5230252;28;20490;-68
2022/05/17 06:35:05;;;;;;;12.13;6.90;;;21.40;99.90;;;;;;5230242;28;20055;-72
2022/05/17 06:37:37;;;;;;;11.38;6.97;;;21.50;99.90;;;;;;5229737;28;20032;-68
2022/05/17 06:40:08;;;;;;;12.45;6.00;;;21.60;99.90;;;;;;5229690;28;20510;-68
2022/05/17 06:42:39;;;;;;;9.98;5.50;;;21.70;99.90;;;;;;5229398;28;20056;-69
2022/05/17 06:45:11;;;;;;;12.40;4.90;;;22.20;99.90;;;;;;5229941;28;20029;-69
2022/05/17 06:47:42;;;;;;;10.82;4.75;;;22.40;99.90;;;;;;5230021;28;20017;-72
2022/05/17 06:50:13;;;;;;;5.25;4.30;;;22.40;99.90;;;;;;5230265;28;20029;-68
2022/05/17 06:52:44;;;;;;;4.95;3.28;;;22.40;99.90;;;;;;5230026;28;20035;-69
2022/05/17 06:55:15;;;;;;;7.65;3.60;;;22.70;99.90;;;;;;5230097;28;20530;-68
2022/05/17 06:57:48;;;;;;;9.38;4.00;;;22.70;99.90;;;;;;5230125;28;20103;-68
2022/05/17 07:00:20;;;;;;;7.25;4.18;;;22.80;99.90;;;;;;5229633;28;20032;-72
2022/05/17 07:02:51;;;;;;;4.82;3.33;;;23.00;99.90;;;;;;5231364;28;20468;-69
2022/05/17 07:05:21;;;;;;;13.32;4.70;;;23.10;99.90;;;;;;5240292;28;20036;-68
2022/05/17 07:07:53;;;;;;;9.30;5.45;;;23.40;99.90;;;;;;5232929;28;20032;-68
2022/05/17 07:13:13;;;;;;;10.50;5.95;;;23.60;99.90;;;;;;5229748;28;20047;-67
2022/05/17 07:15:47;;;;;;;9.20;4.82;;;23.60;99.90;;;;;;5234264;28;20028;-67
2022/05/17 07:18:21;;;;;;;9.57;5.50;;;23.90;99.90;;;;;;5250725;28;20012;-68
2022/05/17 07:20:52;;;;;;;6.88;4.78;;;23.90;99.90;;;;;;5250512;28;20020;-68
2022/05/17 07:23:24;;;;;;;7.55;4.72;;;23.70;99.90;;;;;;5250513;28;20047;-68
2022/05/17 07:25:55;;;;;;;11.98;4.72;;;24.20;99.90;;;;;;5250407;28;20021;-68
2022/05/17 07:28:26;;;;;;;5.35;3.40;;;24.60;99.90;;;;;;5250546;28;20020;-67
2022/05/17 07:30:57;;;;;;;7.57;3.40;;;24.10;99.90;;;;;;5250135;28;20032;-72
2022/05/17 07:33:28;;;;;;;7.30;4.35;;;24.60;99.90;;;;;;5250168;28;20037;-68
2022/05/17 07:35:59;;;;;;;5.55;3.45;;;24.70;99.90;;;;;;5250177;28;20024;-68
2022/05/17 07:38:30;;;;;;;7.65;3.33;;;24.80;99.90;;;;;;5240647;28;20025;-68
2022/05/17 07:41:02;;;;;;;5.15;2.95;;;24.80;99.90;;;;;;5229355;28;20027;-68
2022/05/17 07:43:33;;;;;;;4.13;3.03;;;24.40;99.90;;;;;;5229339;28;20063;-72
2022/05/17 07:46:03;;;;;;;3.67;2.03;;;24.20;99.90;;;;;;5229372;28;20021;-68
2022/05/17 07:48:35;;;;;;;3.97;1.73;;;25.00;99.90;;;;;;5229375;28;20480;-69
2022/05/17 07:51:06;;;;;;;2.60;1.80;;;24.40;99.90;;;;;;5229328;28;20024;-68
2022/05/17 07:53:37;;;;;;;3.72;1.77;;;25.00;99.90;;;;;;5228985;28;20037;-72
2022/05/17 07:56:09;;;;;;;3.28;1.80;;;24.50;99.90;;;;;;5229297;28;20086;-68
2022/05/17 07:58:41;;;;;;;4.90;1.40;;;24.90;99.90;;;;;;5229224;28;20060;-68
2022/05/17 08:01:12;;;;;;;6.20;2.30;;;25.10;99.90;;;;;;5229125;28;20032;-68
2022/05/17 08:03:43;;;;;;;21.27;2.97;;;24.30;96.40;;;;;;5229174;28;20043;-72
2022/05/17 08:06:13;;;;;;;2.65;1.65;;;24.90;99.30;;;;;;5231421;28;20024;-68
2022/05/17 08:08:44;;;;;;;5.65;1.95;;;25.00;98.50;;;;;;5228990;28;20546;-69
2022/05/17 08:11:15;;;;;;;2.83;1.30;;;24.90;94.60;;;;;;5228522;28;20041;-69
2022/05/17 08:13:46;;;;;;;2.70;1.50;;;25.30;94.80;;;;;;5236201;28;20044;-73
2022/05/17 08:16:17;;;;;;;3.10;1.23;;;25.00;90.10;;;;;;5228296;28;20025;-69
2022/05/17 08:18:47;;;;;;;3.35;1.50;;;25.10;91.10;;;;;;5228797;28;20061;-72
2022/05/17 08:21:18;;;;;;;5.30;1.30;;;25.40;90.60;;;;;;5228710;28;20071;-72
2022/05/17 08:23:49;;;;;;;3.05;1.25;;;25.30;87.00;;;;;;5228711;28;20115;-72
2022/05/17 08:29:11;;;;;;;2.05;1.23;;;25.20;83.90;;;;;;5228397;28;20382;-68
2022/05/17 08:31:42;;;;;;;3.90;1.20;;;25.50;83.90;;;;;;5227894;28;20032;-72
2022/05/17 08:34:13;;;;;;;5.82;1.25;;;25.50;82.90;;;;;;5227940;28;20041;-68
2022/05/17 08:36:44;;;;;;;2.20;1.02;;;25.60;83.90;;;;;;5228310;28;20025;-68
2022/05/17 08:39:14;;;;;;;5.70;1.55;;;25.90;81.10;;;;;;5228451;28;20051;-68
2022/05/17 08:41:52;;;;;;;3.80;1.40;;;25.50;79.60;;;;;;5227925;28;20131;-69
2022/05/17 08:44:40;;;;;;;4.78;1.42;;;25.40;80.50;;;;;;5232740;28;20032;-68
2022/05/17 08:47:26;;;;;;;3.65;1.90;;;26.60;84.60;;;;;;5240227;28;20116;-68
2022/05/17 08:50:02;;;;;;;2.45;1.30;;;26.30;82.70;;;;;;5239146;28;20032;-68
2022/05/17 08:52:36;;;;;;;2.65;1.52;;;26.00;80.50;;;;;;5240911;28;20127;-68
2022/05/17 08:55:29;;;;;;;5.85;1.50;;;25.80;80.70;;;;;;5248091;28;20090;-68
2022/05/17 08:58:22;;;;;;;4.57;1.77;;;26.20;84.50;;;;;;5248829;28;20024;-69
2022/05/17 09:01:06;;;;;;;3.05;1.58;;;25.90;80.10;;;;;;5247997;28;20042;-68
2022/05/17 09:04:00;;;;;;;3.85;1.27;;;25.70;77.90;;;;;;5248291;28;20020;-68
2022/05/17 09:06:55;;;;;;;2.13;1.30;;;26.10;79.60;;;;;;5248604;28;20035;-68
2022/05/17 09:09:34;;;;;;;4.10;1.50;;;26.20;82.10;;;;;;5248231;28;20089;-69
2022/05/17 09:12:18;;;;;;;2.67;1.63;;;26.80;75.70;;;;;;5248307;28;20154;-68
2022/05/17 09:14:52;;;;;;;4.22;1.88;;;27.00;75.60;;;;;;5248415;28;20036;-69
2022/05/17 09:17:25;;;;;;;4.03;1.70;;;27.50;79.40;;;;;;5248323;28;20025;-69
2022/05/17 09:19:56;;;;;;;3.55;1.58;;;;;;;;;;5247837;28;20497;-72
2022/05/17 09:22:27;;;;;;;3.53;1.77;;;27.50;75.70;;;;;;5248010;28;20025;-72
2022/05/17 09:25:12;;;;;;;4.13;2.25;;;27.60;79.70;;;;;;5247757;28;20025;-68
2022/05/17 09:27:52;;;;;;;3.05;1.50;;;26.80;73.70;;;;;;5247664;28;20036;-73
2022/05/17 09:30:22;;;;;;;5.65;1.70;;;26.80;75.10;;;;;;5247705;28;20039;-72
2022/05/17 09:33:06;;;;;;;3.45;1.77;;;26.30;72.80;;;;;;5248012;28;20388;-72
2022/05/17 09:35:53;;;;;;;4.28;1.75;;;27.10;74.00;;;;;;5247625;28;20109;-71
2022/05/17 09:38:24;;;;;;;4.80;1.83;;;27.30;70.20;;;;;;5247712;28;20024;-73
2022/05/17 09:40:57;;;;;;;6.57;2.17;;;28.50;75.90;;;;;;5247675;28;20036;-73
2022/05/17 09:43:46;;;;;;;3.38;1.80;;;28.40;74.50;;;;;;5247380;28;20066;-73
2022/05/17 09:46:29;;;;;;;5.75;1.90;;;28.30;74.40;;;;;;5247680;28;20566;-72
2022/05/17 09:54:48;;;;;;;4.30;1.75;;;27.60;73.50;;;;;;5247923;28;20040;-69
2022/05/17 09:57:29;;;;;;;3.75;2.10;;;27.60;75.50;;;;;;5247435;28;20020;-69
2022/05/17 10:00:13;;;;;;;7.35;2.38;;;27.40;73.50;;;;;;5247989;28;20029;-68
2022/05/17 10:02:57;;;;;;;7.05;2.10;;;27.70;75.40;;;;;;5247715;28;20031;-69
2022/05/17 10:05:36;;;;;;;8.50;2.63;;;28.20;76.80;;;;;;5247799;28;20021;-70
2022/05/17 10:08:13;;;;;;;5.85;3.03;;;28.90;74.20;;;;;;5247959;28;20059;-72
2022/05/17 10:10:47;;;;;;;9.38;3.25;;;28.20;74.90;;;;;;5247842;28;20059;-69
2022/05/17 10:13:32;;;;;;;5.85;2.90;;;27.70;77.40;;;;;;5247581;28;20170;-69
2022/05/17 10:16:23;;;;;;;7.32;3.15;;;27.20;78.20;;;;;;5247875;28;20073;-68
2022/05/17 10:18:59;;;;;;;9.18;2.83;;;26.70;76.70;;;;;;5248022;28;20104;-72
2022/05/17 10:21:58;;;;;;;13.18;3.30;;;26.60;75.50;;;;;;5247920;28;20369;-69
2022/05/17 10:24:51;;;;;;;8.55;3.10;;;27.40;77.70;;;;;;5247859;28;20098;-68
2022/05/17 10:27:35;;;;;;;9.48;3.10;;;27.80;75.40;;;;;;5263467;28;20529;-68
2022/05/17 10:30:11;;;;;;;7.28;2.83;;;27.50;76.60;;;;;;5247834;28;20028;-68
2022/05/17 10:32:56;;;;;;;8.45;2.80;;;28.10;76.80;;;;;;5247708;28;20423;-69
2022/05/17 10:35:35;;;;;;;5.85;2.90;;;28.00;75.90;;;;;;5248345;28;20028;-68
2022/05/17 10:38:28;;;;;;;9.23;3.00;;;27.70;71.60;;;;;;5251688;28;20009;-68
2022/05/17 10:41:02;;;;;;;6.60;2.60;;;27.70;72.70;;;;;;5251374;28;20054;-69
2022/05/17 10:43:37;;;;;;;8.13;2.92;;;29.00;75.60;;;;;;5251114;28;20053;-69
2022/05/17 10:46:16;;;;;;;8.20;3.20;;;28.00;72.80;;;;;;5251242;28;20024;-68
2022/05/17 10:49:02;;;;;;;;;;;28.70;75.30;;;;;;5251937;28;20024;-69
2022/05/17 10:52:09;;;;;;;6.78;3.33;;;28.80;73.70;;;;;;5251198;28;19912;-69
2022/05/17 10:54:58;;;;;;;16.65;4.57;;;27.80;75.60;;;;;;5219875;28;20499;-69
2022/05/17 10:57:36;;;;;;;;;;;27.70;73.80;;;;;;5251587;28;20480;-68
2022/05/17 11:00:18;;;;;;;12.18;3.58;;;27.90;72.60;;;;;;5251050;28;19904;-69
2022/05/17 11:03:10;;;;;;;6.78;3.63;;;27.80;69.40;;;;;;5250994;28;20027;-69
2022/05/17 11:05:41;;;;;;;8.00;3.90;;;27.60;72.00;;;;;;5251005;28;20023;-69
2022/05/17 11:08:40;;;;;;;8.02;3.58;;;28.30;73.00;;;;;;5250832;28;20025;-69
2022/05/17 11:11:36;;;;;;;6.75;3.50;;;27.50;74.20;;;;;;5239714;28;20036;-69
2022/05/17 11:14:16;;;;;;;9.25;3.88;;;27.30;75.10;;;;;;5250690;28;20484;-68
2022/05/17 11:16:50;;;;;;;7.90;3.70;;;27.40;71.50;;;;;;5250745;28;20016;-69
2022/05/17 11:20:06;;;;;;;5.07;3.22;;;27.40;69.80;;;;;;5250653;28;20028;-68
2022/05/17 11:22:52;;;;;;;10.38;3.42;;;27.60;70.10;;;;;;5244633;28;20037;-68
2022/05/17 11:25:44;;;;;;;8.43;4.07;;;27.10;73.50;;;;;;5250699;28;20574;-69
2022/05/17 11:28:42;;;;;;;7.05;3.35;;;27.30;74.00;;;;;;5250538;28;20021;-72
2022/05/17 11:31:47;;;;;;;8.65;3.28;;;27.20;74.40;;;;;;5250583;28;20487;-69
2022/05/17 11:34:33;;;;;;;9.55;3.92;;;27.30;77.60;;;;;;5250036;28;20123;-73
2022/05/17 11:37:08;;;;;;;8.95;3.58;;;26.90;72.40;;;;;;5250474;28;20017;-72
2022/05/17 11:39:46;;;;;;;7.95;3.80;;;27.10;73.40;;;;;;5250235;28;20059;-69
2022/05/17 11:42:29;;;;;;;12.48;3.75;;;27.30;72.20;;;;;;5249833;28;20127;-72
2022/05/17 11:45:22;;;;;;;8.45;3.55;;;27.40;73.20;;;;;;5250177;28;20090;-72
2022/05/17 11:47:57;;;;;;;6.80;3.40;;;27.20;69.10;;;;;;5250027;28;20052;-72
2022/05/17 11:50:28;;;;;;;6.72;3.50;;;27.30;76.60;;;;;;5249829;28;20029;-73
2022/05/17 11:53:23;;;;;;;6.85;3.22;;;27.20;75.00;;;;;;5258992;28;20078;-69
2022/05/17 11:56:25;;;;;;;5.57;3.53;;;27.40;74.00;;;;;;5268876;28;20368;-73
2022/05/17 11:59:03;;;;;;;5.68;3.60;;;27.20;72.20;;;;;;5265854;28;20020;-72
2022/05/17 12:01:35;;;;;;;7.78;3.17;;;27.50;76.10;;;;;;5229016;28;20591;-73
2022/05/17 12:04:21;;;;;;;8.38;3.20;;;27.70;83.80;;;;;;5229189;28;20017;-69
2022/05/17 12:06:52;;;;;;;6.93;2.85;;;27.50;72.20;;;;;;5229124;28;20373;-72
2022/05/17 12:09:38;;;;;;;6.13;3.00;;;27.10;70.90;;;;;;5229007;28;20034;-73
2022/05/17 12:12:43;;;;;;;5.60;3.13;;;27.00;73.10;;;;;;5228806;28;20117;-72
2022/05/17 12:15:26;;;;;;;7.35;3.47;;;27.00;72.80;;;;;;5228884;28;20129;-72
2022/05/17 12:18:11;;;;;;;9.05;3.30;;;26.70;75.30;;;;;;5228935;28;20025;-72
2022/05/17 12:21:20;;;;;;;7.13;3.20;;;27.20;73.00;;;;;;5228689;28;20057;-73
2022/05/17 12:24:03;;;;;;;7.72;3.47;;;27.50;71.80;;;;;;5221165;28;20481;-73
2022/05/17 12:27:01;;;;;;;8.45;3.80;;;28.00;77.90;;;;;;5228784;28;20040;-73
2022/05/17 12:32:40;;;;;;;5.78;3.22;;;29.00;70.80;;;;;;5228822;28;20435;-73
2022/05/17 12:35:12;;;;;;;6.25;3.42;;;28.50;68.60;;;;;;5228368;28;20435;-72
2022/05/17 12:37:44;;;;;;;15.70;3.58;;;29.00;71.30;;;;;;5228300;28;20163;-71
2022/05/17 12:43:29;;;;;;;7.00;3.42;;;28.00;68.50;;;;;;5228138;28;20107;-72
2022/05/17 12:46:24;;;;;;;4.07;3.13;;;27.60;69.90;;;;;;5228280;28;20114;-69
2022/05/17 12:48:56;;;;;;;10.07;3.53;;;28.50;79.10;;;;;;5228259;28;20021;-72
2022/05/17 12:51:27;;;;;;;5.93;3.22;;;27.90;79.20;;;;;;5228060;28;20036;-73
2022/05/17 12:54:03;;;;;;;8.00;3.55;;;28.40;77.90;;;;;;5227927;28;20045;-69
2022/05/17 12:56:37;;;;;;;7.95;3.30;;;28.10;68.80;;;;;;5228160;28;20037;-69
2022/05/17 12:59:09;;;;;;;6.22;3.50;;;28.50;69.80;;;;;;5227424;28;20381;-70
2022/05/17 13:01:43;;;;;;;5.47;3.53;;;28.00;71.10;;;;;;5227843;28;20034;-73
2022/05/17 13:04:16;;;;;;;8.65;3.85;;;27.80;68.20;;;;;;5227771;28;20020;-72
2022/05/17 13:06:49;;;;;;;10.40;3.67;;;27.90;68.30;;;;;;5227930;28;20013;-73
2022/05/17 13:09:28;;;;;;;8.48;3.47;;;28.30;71.60;;;;;;5227983;28;20071;-72
2022/05/17 13:12:13;;;;;;;7.13;3.25;;;28.50;79.30;;;;;;5227629;28;20041;-69
2022/05/17 13:14:45;;;;;;;7.63;2.72;;;28.00;71.10;;;;;;5227677;28;20054;-72
2022/05/17 13:17:23;;;;;;;7.05;3.42;;;27.60;74.40;;;;;;5227705;28;20048;-69
2022/05/17 13:19:58;;;;;;;6.17;3.63;;;27.20;75.90;;;;;;5227632;28;20032;-73
2022/05/17 13:22:29;;;;;;;6.53;3.55;;;26.40;86.10;;;;;;5227434;28;20262;-73
2022/05/17 13:25:03;;;;;;;5.88;3.47;;;26.70;88.00;;;;;;5227465;28;20024;-72
2022/05/17 13:27:37;;;;;;;5.22;3.40;;;26.90;89.50;;;;;;5227802;28;20411;-69
2022/05/17 13:30:35;;;;;;;8.68;3.38;;;26.10;93.40;;;;;;5227652;28;20079;-73
2022/05/17 13:33:11;;;;;;;6.30;3.53;;;26.30;94.30;;;;;;5227434;28;20047;-68
2022/05/17 13:35:43;;;;;;;5.32;3.50;;;26.10;97.40;;;;;;5227496;28;20021;-69
2022/05/17 13:38:17;;;;;;;5.22;3.95;;;26.20;99.90;;;;;;5227651;28;20036;-69
2022/05/17 13:41:03;;;;;;;9.63;4.22;;;25.30;99.90;;;;;;5227449;28;20017;-72
2022/05/17 13:43:58;;;;;;;7.20;3.47;;;25.80;99.90;;;;;;5227124;28;20497;-69